Time;durP1;ratioP1;P1;durP2;ratioP2;P2;SDS_P1;SDS_P2;PMS_P1;PMS_P2;Temp;Humidity;BMP_temperature;BMP_pressure;BME280_temperature;BME280_humidity;BME280_pressure;Samples;Min_cycle;Max_cycle;Signal;HPM_P1;HPM_P2
2022/05/05 00:02:09;;;;;;;15.40;5.60;;;8.60;99.90;;;;;;5008722;28;20064;-67
2022/05/05 00:04:35;;;;;;;12.45;5.63;;;8.50;99.90;;;;;;4990704;28;20494;-67
2022/05/05 00:07:02;;;;;;;12.43;5.47;;;8.50;99.90;;;;;;5009735;28;20401;-67
2022/05/05 00:09:28;;;;;;;10.68;5.28;;;8.50;99.90;;;;;;4990260;28;20050;-67
2022/05/05 00:14:40;;;;;;;13.60;6.13;;;8.50;99.90;;;;;;5011783;28;20050;-67
2022/05/05 00:17:08;;;;;;;13.27;6.30;;;8.60;99.90;;;;;;5010566;28;20046;-67
2022/05/05 00:19:36;;;;;;;17.02;6.40;;;8.50;99.90;;;;;;4996223;28;20078;-67
2022/05/05 00:22:03;;;;;;;13.13;7.07;;;8.50;99.90;;;;;;5008640;28;20065;-67
2022/05/05 00:24:29;;;;;;;13.98;6.53;;;8.50;99.90;;;;;;5007722;28;20052;-67
2022/05/05 00:26:56;;;;;;;15.10;6.65;;;8.50;99.90;;;;;;5008939;28;20045;-66
2022/05/05 00:29:22;;;;;;;14.90;6.43;;;8.50;99.90;;;;;;4990455;28;20501;-67
2022/05/05 00:31:49;;;;;;;12.80;6.80;;;8.50;99.90;;;;;;5009278;28;20120;-67
2022/05/05 00:34:15;;;;;;;11.68;6.15;;;8.50;99.90;;;;;;5007983;28;20038;-67
2022/05/05 00:36:41;;;;;;;12.63;5.75;;;8.50;99.90;;;;;;5008976;28;20478;-66
2022/05/05 00:39:08;;;;;;;9.57;5.55;;;8.50;99.90;;;;;;5007948;28;20050;-67
2022/05/05 00:41:36;;;;;;;13.88;5.65;;;8.50;99.90;;;;;;5007832;28;20050;-66
2022/05/05 00:44:04;;;;;;;12.43;5.43;;;8.50;99.90;;;;;;5007458;28;20072;-66
2022/05/05 00:46:30;;;;;;;11.93;5.78;;;8.50;99.90;;;;;;4991539;28;20050;-67
2022/05/05 00:48:56;;;;;;;8.93;5.40;;;8.40;99.90;;;;;;5009291;28;20084;-67
2022/05/05 00:51:21;;;;;;;13.25;5.78;;;8.50;99.90;;;;;;4992848;28;20518;-67
2022/05/05 00:53:47;;;;;;;8.90;4.97;;;8.40;99.90;;;;;;5006913;28;20490;-67
2022/05/05 00:56:14;;;;;;;10.05;5.25;;;8.40;99.90;;;;;;4990151;28;20088;-67
2022/05/05 00:58:44;;;;;;;9.23;5.20;;;8.40;99.90;;;;;;5008224;28;20447;-67
2022/05/05 01:01:11;;;;;;;13.75;5.90;;;8.40;99.90;;;;;;5008974;28;20057;-66
2022/05/05 01:03:37;;;;;;;9.43;5.13;;;8.40;99.90;;;;;;5008382;28;20539;-67
2022/05/05 01:06:05;;;;;;;15.80;5.65;;;8.50;99.90;;;;;;5003432;28;20054;-67
2022/05/05 01:08:33;;;;;;;13.45;5.50;;;8.40;99.90;;;;;;4992706;28;20726;-67
2022/05/05 01:10:58;;;;;;;14.05;4.97;;;8.40;99.90;;;;;;5011058;28;20441;-66
2022/05/05 01:13:27;;;;;;;19.15;6.25;;;8.40;99.90;;;;;;5018671;28;20370;-67
2022/05/05 01:15:53;;;;;;;12.80;5.30;;;8.40;99.90;;;;;;5029394;28;20417;-66
2022/05/05 01:18:18;;;;;;;8.70;5.30;;;8.50;99.90;;;;;;5012510;28;20054;-67
2022/05/05 01:20:46;;;;;;;14.18;4.80;;;8.70;99.90;;;;;;5008107;28;20362;-67
2022/05/05 01:23:12;;;;;;;14.80;5.38;;;8.50;99.90;;;;;;4991704;28;20054;-66
2022/05/05 01:28:22;;;;;;;15.10;5.03;;;8.70;99.90;;;;;;4990113;28;20057;-67
2022/05/05 01:30:48;;;;;;;11.68;5.10;;;8.40;99.90;;;;;;4991201;28;20042;-67
2022/05/05 01:33:20;;;;;;;9.70;5.22;;;8.40;99.90;;;;;;5006821;28;20041;-67
2022/05/05 01:35:48;;;;;;;10.20;4.78;;;8.40;99.90;;;;;;5008732;28;20058;-67
2022/05/05 01:38:17;;;;;;;12.70;5.30;;;8.40;99.90;;;;;;4989617;28;20245;-66
2022/05/05 01:40:48;;;;;;;13.13;5.63;;;8.70;99.90;;;;;;5007672;28;20076;-67
2022/05/05 01:43:15;;;;;;;12.80;5.10;;;8.40;99.90;;;;;;5007275;28;20044;-67
2022/05/05 01:45:42;;;;;;;9.68;5.10;;;8.50;99.90;;;;;;4990911;28;20050;-67
2022/05/05 01:48:08;;;;;;;11.30;5.28;;;8.40;99.90;;;;;;5007332;28;20057;-67
2022/05/05 01:50:34;;;;;;;11.88;5.25;;;8.50;99.90;;;;;;4990409;28;20491;-67
2022/05/05 01:53:01;;;;;;;9.93;5.38;;;8.50;99.90;;;;;;5009564;28;20045;-67
2022/05/05 01:55:30;;;;;;;11.27;5.10;;;8.50;99.90;;;;;;5011318;28;20054;-67
2022/05/05 01:57:56;;;;;;;10.18;5.30;;;8.40;99.90;;;;;;5011370;28;20378;-66
2022/05/05 02:00:22;;;;;;;11.35;5.25;;;8.40;99.90;;;;;;5011405;28;20042;-66
2022/05/05 02:02:48;;;;;;;10.80;5.00;;;8.40;99.90;;;;;;5011191;28;20034;-66
2022/05/05 02:05:14;;;;;;;15.27;5.10;;;8.40;99.90;;;;;;5010792;28;20457;-66
2022/05/05 02:07:41;;;;;;;10.18;5.55;;;8.40;99.90;;;;;;5011292;28;20414;-66
2022/05/05 02:10:09;;;;;;;10.35;5.18;;;8.40;99.90;;;;;;4992622;28;20394;-67
2022/05/05 02:12:36;;;;;;;12.15;5.82;;;8.40;99.90;;;;;;4977262;28;20451;-66
2022/05/05 02:15:06;;;;;;;17.17;5.45;;;8.40;99.90;;;;;;5011369;28;20140;-66
2022/05/05 02:17:36;;;;;;;12.20;5.45;;;8.30;99.90;;;;;;5010594;28;20436;-66
2022/05/05 02:20:04;;;;;;;11.90;5.68;;;8.30;99.90;;;;;;5010893;28;20054;-66
2022/05/05 02:22:29;;;;;;;17.75;5.57;;;8.30;99.90;;;;;;4976936;28;20117;-67
2022/05/05 02:24:55;;;;;;;10.90;5.38;;;8.30;99.90;;;;;;5011192;28;20541;-67
2022/05/05 02:27:21;;;;;;;15.65;5.75;;;8.20;99.90;;;;;;5010743;28;20046;-66
2022/05/05 02:29:47;;;;;;;8.88;5.28;;;8.20;99.90;;;;;;5010215;28;20050;-67
2022/05/05 02:32:13;;;;;;;13.38;5.90;;;8.20;99.90;;;;;;4994582;28;20425;-66
2022/05/05 02:34:39;;;;;;;10.35;5.38;;;8.10;99.90;;;;;;5011190;28;20125;-66
2022/05/05 02:39:49;;;;;;;10.70;5.30;;;8.10;99.90;;;;;;5010735;28;20085;-67
2022/05/05 02:42:16;;;;;;;10.20;5.10;;;8.10;99.90;;;;;;5010144;28;20077;-66
2022/05/05 02:44:42;;;;;;;13.38;5.35;;;8.10;99.90;;;;;;4992276;28;20050;-66
2022/05/05 02:47:08;;;;;;;8.20;5.30;;;8.10;99.90;;;;;;5011115;28;20747;-66
2022/05/05 02:49:34;;;;;;;14.27;6.30;;;8.80;99.90;;;;;;5010763;28;20045;-66
2022/05/05 02:51:59;;;;;;;11.40;5.40;;;8.00;99.90;;;;;;5009974;28;20502;-66
2022/05/05 02:57:09;;;;;;;16.23;6.18;;;8.00;99.90;;;;;;5010489;28;20054;-66
2022/05/05 02:59:34;;;;;;;10.60;5.93;;;8.00;99.90;;;;;;5009932;28;20406;-66
2022/05/05 03:02:00;;;;;;;12.18;6.03;;;8.00;99.90;;;;;;4996028;28;20038;-66
2022/05/05 03:04:26;;;;;;;10.00;5.68;;;8.10;99.90;;;;;;4986812;28;20086;-67
2022/05/05 03:06:51;;;;;;;10.88;5.25;;;8.10;99.90;;;;;;5013748;28;20046;-66
2022/05/05 03:09:18;;;;;;;12.63;5.70;;;8.20;99.90;;;;;;5012507;28;20120;-66
2022/05/05 03:11:43;;;;;;;9.93;5.60;;;8.20;99.90;;;;;;5012269;28;20505;-66
2022/05/05 03:14:09;;;;;;;10.23;5.10;;;8.20;99.90;;;;;;5010992;28;20124;-66
2022/05/05 03:16:35;;;;;;;11.57;5.78;;;8.20;99.90;;;;;;5010794;28;20081;-67
2022/05/05 03:19:00;;;;;;;11.05;5.50;;;8.20;99.90;;;;;;5009691;28;20514;-66
2022/05/05 03:21:26;;;;;;;9.13;5.43;;;8.30;99.90;;;;;;5009337;28;20046;-67
2022/05/05 03:23:51;;;;;;;10.75;5.68;;;8.30;99.90;;;;;;4992505;28;20113;-67
2022/05/05 03:26:17;;;;;;;10.02;5.68;;;8.30;99.90;;;;;;5008437;28;20077;-67
2022/05/05 03:28:43;;;;;;;13.88;5.97;;;8.30;99.90;;;;;;5010482;28;20034;-66
2022/05/05 03:31:08;;;;;;;11.98;5.90;;;8.40;99.90;;;;;;5010008;28;20058;-67
2022/05/05 03:33:36;;;;;;;11.30;6.28;;;8.40;99.90;;;;;;5009740;28;20037;-67
2022/05/05 03:36:03;;;;;;;11.57;6.07;;;8.30;99.90;;;;;;5009195;28;20378;-67
2022/05/05 03:38:28;;;;;;;13.38;6.20;;;8.30;99.90;;;;;;5030288;28;20525;-66
2022/05/05 03:40:54;;;;;;;14.70;6.68;;;8.30;99.90;;;;;;5009095;28;20049;-67
2022/05/05 03:43:20;;;;;;;13.32;6.55;;;8.30;99.90;;;;;;4991608;28;20042;-67
2022/05/05 03:45:46;;;;;;;15.25;7.47;;;9.00;99.90;;;;;;5010306;28;20049;-67
2022/05/05 03:48:11;;;;;;;21.60;7.40;;;8.30;99.90;;;;;;4992691;28;20030;-67
2022/05/05 03:50:37;;;;;;;16.58;7.35;;;8.40;99.90;;;;;;5009459;28;20042;-67
2022/05/05 03:53:03;;;;;;;18.02;7.68;;;8.40;99.90;;;;;;5009470;28;20582;-67
2022/05/05 03:55:29;;;;;;;14.93;7.85;;;8.40;99.90;;;;;;5008502;28;20116;-67
2022/05/05 03:57:55;;;;;;;13.13;7.85;;;8.40;99.90;;;;;;5009068;28;20482;-67
2022/05/05 04:00:22;;;;;;;18.27;7.88;;;8.40;99.90;;;;;;5009530;28;20045;-67
2022/05/05 04:03:30;;;;;;;15.93;7.50;;;8.40;99.90;;;;;;4991407;28;20049;-66
2022/05/05 04:05:35;;;;;;;11.98;7.57;;;8.40;99.90;;;;;;5008965;28;20436;-68
2022/05/05 04:08:05;;;;;;;16.85;7.65;;;8.40;99.90;;;;;;5008581;28;20057;-66
2022/05/05 04:10:31;;;;;;;14.80;7.28;;;8.50;99.90;;;;;;5009759;28;20042;-66
2022/05/05 04:12:57;;;;;;;13.15;7.43;;;8.50;99.90;;;;;;5008997;28;20042;-66
2022/05/05 04:15:23;;;;;;;13.40;7.38;;;8.50;99.90;;;;;;5008180;28;20271;-66
2022/05/05 04:17:49;;;;;;;14.27;7.97;;;8.60;99.90;;;;;;5009259;28;20060;-66
2022/05/05 04:20:15;;;;;;;15.95;7.47;;;8.60;99.90;;;;;;4990603;28;20375;-67
2022/05/05 04:22:41;;;;;;;11.48;7.13;;;8.60;99.90;;;;;;5008365;28;20538;-67
2022/05/05 04:25:08;;;;;;;14.77;7.50;;;8.60;99.90;;;;;;5009439;28;20045;-67
2022/05/05 04:27:34;;;;;;;12.60;7.03;;;8.50;99.90;;;;;;4990519;28;20062;-67
2022/05/05 04:30:01;;;;;;;12.90;7.80;;;8.60;99.90;;;;;;5007383;28;20057;-67
2022/05/05 04:32:27;;;;;;;15.23;7.13;;;8.60;99.90;;;;;;4974007;28;20474;-66
2022/05/05 04:34:54;;;;;;;16.35;7.03;;;8.60;99.90;;;;;;5025378;28;20136;-66
2022/05/05 04:37:20;;;;;;;15.98;7.55;;;8.60;99.90;;;;;;5023619;28;20465;-66
2022/05/05 04:39:46;;;;;;;19.48;7.53;;;8.60;99.90;;;;;;5009297;28;20058;-66
2022/05/05 04:42:11;;;;;;;14.98;7.55;;;8.70;99.90;;;;;;4975477;28;20501;-66
2022/05/05 04:44:37;;;;;;;16.10;6.70;;;8.70;99.90;;;;;;4991110;28;20129;-66
2022/05/05 04:47:03;;;;;;;12.27;6.57;;;8.70;99.90;;;;;;5008618;28;20057;-67
2022/05/05 04:49:29;;;;;;;17.73;7.00;;;8.70;99.90;;;;;;5011594;28;20038;-67
2022/05/05 04:51:54;;;;;;;17.95;7.03;;;8.70;99.90;;;;;;5028339;28;20099;-67
2022/05/05 04:54:20;;;;;;;13.85;6.80;;;8.70;99.90;;;;;;5027942;28;20167;-67
2022/05/05 04:56:46;;;;;;;19.83;7.22;;;8.70;99.90;;;;;;5028202;28;20049;-67
2022/05/05 04:59:12;;;;;;;26.00;7.80;;;8.70;99.90;;;;;;5027068;28;20053;-67
2022/05/05 05:01:37;;;;;;;33.33;7.88;;;9.60;99.90;;;;;;5023759;28;20410;-67
2022/05/05 05:04:03;;;;;;;18.73;7.18;;;8.80;99.90;;;;;;5027698;28;20041;-67
2022/05/05 05:06:29;;;;;;;11.98;6.47;;;8.80;99.90;;;;;;5010491;28;20477;-67
2022/05/05 05:08:55;;;;;;;15.52;6.60;;;8.80;99.90;;;;;;5029888;28;20040;-67
2022/05/05 05:11:21;;;;;;;13.63;6.53;;;8.90;99.90;;;;;;5027212;28;20083;-66
2022/05/05 05:13:47;;;;;;;17.92;6.90;;;8.90;99.90;;;;;;5024617;28;20085;-67
2022/05/05 05:16:13;;;;;;;23.05;6.85;;;9.00;99.90;;;;;;5008276;28;20461;-65
2022/05/05 05:18:38;;;;;;;19.77;7.20;;;9.00;99.90;;;;;;5008317;28;20078;-66
2022/05/05 05:21:04;;;;;;;19.42;6.95;;;9.00;99.90;;;;;;5007781;28;20077;-66
2022/05/05 05:23:30;;;;;;;13.60;6.60;;;9.00;99.90;;;;;;5007844;28;20045;-67
2022/05/05 05:25:55;;;;;;;13.30;6.63;;;9.00;99.90;;;;;;4989916;28;20057;-67
2022/05/05 05:28:21;;;;;;;10.70;6.20;;;9.00;99.90;;;;;;4992239;28;20050;-67
2022/05/05 05:30:47;;;;;;;14.00;6.35;;;9.00;99.90;;;;;;5012607;28;20041;-67
2022/05/05 05:33:13;;;;;;;12.32;6.05;;;9.00;99.90;;;;;;5011329;28;20096;-67
2022/05/05 05:35:39;;;;;;;16.23;6.90;;;10.30;99.90;;;;;;5011849;28;20096;-67
2022/05/05 05:38:05;;;;;;;12.15;6.25;;;9.60;99.90;;;;;;5011474;28;20049;-67
2022/05/05 05:40:31;;;;;;;9.82;5.78;;;9.20;99.90;;;;;;5011826;28;20379;-67
2022/05/05 05:42:57;;;;;;;14.82;6.53;;;9.20;99.90;;;;;;5011038;28;20085;-66
2022/05/05 05:45:23;;;;;;;16.38;6.60;;;9.20;99.90;;;;;;5011218;28;20050;-67
2022/05/05 05:47:49;;;;;;;13.23;6.55;;;9.20;99.90;;;;;;4993729;28;20157;-67
2022/05/05 05:50:14;;;;;;;16.80;6.80;;;9.30;99.90;;;;;;4986341;28;20542;-67
2022/05/05 05:52:40;;;;;;;17.58;6.85;;;9.30;99.90;;;;;;4993964;28;20042;-67
2022/05/05 05:55:06;;;;;;;14.65;6.65;;;9.30;99.90;;;;;;4974011;28;20541;-67
2022/05/05 05:57:32;;;;;;;14.10;5.90;;;9.40;99.90;;;;;;4990838;28;20133;-68
2022/05/05 05:59:57;;;;;;;16.08;6.57;;;9.40;99.90;;;;;;5007253;28;20487;-68
2022/05/05 06:05:07;;;;;;;20.10;6.70;;;9.60;99.90;;;;;;5006311;28;20530;-68
2022/05/05 06:07:33;;;;;;;11.60;6.20;;;9.60;99.90;;;;;;4989333;28;20042;-68
2022/05/05 06:09:58;;;;;;;12.63;6.35;;;9.80;99.90;;;;;;5008739;28;20100;-68
2022/05/05 06:12:24;;;;;;;18.40;6.22;;;9.80;99.90;;;;;;4989367;28;20129;-68
2022/05/05 06:14:50;;;;;;;17.70;7.13;;;9.90;99.90;;;;;;4989091;28;20127;-68
2022/05/05 06:17:15;;;;;;;12.32;6.97;;;11.10;99.90;;;;;;5007152;28;20137;-67
2022/05/05 06:19:44;;;;;;;18.17;6.45;;;9.90;99.90;;;;;;5007957;28;20072;-67
2022/05/05 06:22:09;;;;;;;15.98;6.72;;;10.30;99.90;;;;;;5007291;28;20442;-67
2022/05/05 06:24:35;;;;;;;22.58;7.60;;;10.10;99.90;;;;;;4989683;28;20057;-68
2022/05/05 06:27:01;;;;;;;17.00;6.30;;;10.10;99.90;;;;;;5007815;28;20105;-67
2022/05/05 06:29:27;;;;;;;13.65;6.30;;;10.60;99.90;;;;;;5000244;28;20038;-67
2022/05/05 06:31:52;;;;;;;19.70;6.15;;;10.20;99.90;;;;;;5006710;28;20052;-67
2022/05/05 06:34:18;;;;;;;15.43;6.18;;;10.30;99.90;;;;;;5006705;28;20101;-67
2022/05/05 06:36:44;;;;;;;16.38;6.57;;;10.30;99.90;;;;;;5006921;28;20049;-67
2022/05/05 06:39:09;;;;;;;13.55;6.53;;;10.60;99.90;;;;;;5005249;28;20187;-68
2022/05/05 06:41:35;;;;;;;21.58;7.18;;;10.50;99.90;;;;;;5007019;28;20045;-67
2022/05/05 06:44:01;;;;;;;18.42;5.97;;;10.50;99.90;;;;;;4988005;28;20049;-67
2022/05/05 06:46:27;;;;;;;13.82;6.03;;;10.50;99.90;;;;;;5002818;28;20038;-67
2022/05/05 06:48:53;;;;;;;13.73;6.20;;;10.50;99.90;;;;;;5009909;28;20465;-66
2022/05/05 06:51:19;;;;;;;17.75;6.45;;;10.60;99.90;;;;;;5009332;28;20049;-67
2022/05/05 06:53:45;;;;;;;16.75;6.43;;;10.70;99.90;;;;;;5010387;28;20050;-68
2022/05/05 06:56:10;;;;;;;18.05;6.88;;;10.80;99.90;;;;;;5009736;28;20077;-68
2022/05/05 06:58:36;;;;;;;17.35;6.43;;;10.80;99.90;;;;;;5010204;28;20038;-68
2022/05/05 07:03:46;;;;;;;11.77;6.20;;;11.00;99.90;;;;;;5029468;28;20486;-68
2022/05/05 07:06:12;;;;;;;18.50;7.18;;;11.60;99.90;;;;;;5011944;28;20128;-66
2022/05/05 07:11:22;;;;;;;14.00;6.55;;;11.30;99.90;;;;;;5019094;28;20081;-67
2022/05/05 07:13:48;;;;;;;16.67;7.00;;;11.30;99.90;;;;;;5010214;28;20081;-66
2022/05/05 07:16:14;;;;;;;15.05;7.10;;;11.40;99.90;;;;;;4992394;28;20049;-67
2022/05/05 07:18:39;;;;;;;15.05;6.65;;;11.40;99.90;;;;;;4992365;28;20046;-67
2022/05/05 07:21:05;;;;;;;16.63;7.03;;;11.50;99.90;;;;;;5010370;28;20059;-67
2022/05/05 07:23:31;;;;;;;14.70;6.57;;;11.50;99.90;;;;;;4971531;28;21011;-66
2022/05/05 07:25:57;;;;;;;15.77;7.05;;;12.50;99.90;;;;;;5006034;28;20421;-66
2022/05/05 07:28:22;;;;;;;15.27;6.90;;;11.70;99.90;;;;;;5009188;28;20476;-67
2022/05/05 07:30:49;;;;;;;17.17;6.50;;;11.70;99.90;;;;;;5011669;28;20077;-67
2022/05/05 07:33:14;;;;;;;19.25;7.30;;;11.80;99.90;;;;;;5010749;28;20394;-67
2022/05/05 07:35:40;;;;;;;16.48;7.50;;;11.90;99.90;;;;;;5009048;28;20042;-67
2022/05/05 07:38:06;;;;;;;14.88;6.93;;;12.00;99.90;;;;;;5023338;28;20465;-67
2022/05/05 07:40:34;;;;;;;15.13;6.68;;;12.10;99.90;;;;;;5028608;28;20490;-67
2022/05/05 07:42:59;;;;;;;12.05;6.22;;;12.20;99.90;;;;;;4975663;28;20053;-67
2022/05/05 07:45:25;;;;;;;11.05;6.10;;;12.30;99.90;;;;;;5009002;28;20046;-67
2022/05/05 07:47:50;;;;;;;12.20;6.65;;;12.40;99.90;;;;;;5009043;28;20037;-67
2022/05/05 07:50:16;;;;;;;14.15;6.28;;;12.90;99.90;;;;;;5008890;28;20132;-68
2022/05/05 07:52:42;;;;;;;13.98;6.15;;;12.60;99.90;;;;;;5008572;28;20038;-67
2022/05/05 07:55:08;;;;;;;19.15;6.05;;;12.70;99.90;;;;;;5009945;28;20042;-67
2022/05/05 07:57:42;;;;;;;12.50;5.53;;;12.90;99.90;;;;;;5008485;28;20181;-67
2022/05/05 08:00:10;;;;;;;10.95;5.47;;;13.00;99.90;;;;;;4971811;28;20251;-67
2022/05/05 08:02:35;;;;;;;9.77;5.20;;;13.10;99.90;;;;;;5004927;28;20387;-67
2022/05/05 08:05:01;;;;;;;13.73;5.53;;;13.30;99.90;;;;;;5008589;28;20050;-67
2022/05/05 08:07:28;;;;;;;10.35;5.32;;;13.50;99.90;;;;;;4961077;28;20072;-67
2022/05/05 08:09:53;;;;;;;16.20;5.65;;;13.70;99.90;;;;;;4991789;28;20120;-67
2022/05/05 08:12:19;;;;;;;12.52;5.05;;;13.80;99.90;;;;;;5006024;28;20534;-67
2022/05/05 08:14:45;;;;;;;16.45;5.40;;;13.90;99.90;;;;;;4991063;28;20109;-67
2022/05/05 08:17:10;;;;;;;12.68;5.30;;;14.10;99.90;;;;;;5008611;28;20482;-66
2022/05/05 08:19:36;;;;;;;16.58;5.47;;;14.30;99.90;;;;;;5008207;28;20104;-66
2022/05/05 08:22:02;;;;;;;13.38;5.15;;;14.50;99.90;;;;;;5011079;28;20089;-68
2022/05/05 08:30:00;;;;;;;11.07;5.15;;;14.80;99.90;;;;;;5009007;28;20049;-66
2022/05/05 08:32:26;;;;;;;12.13;5.50;;;14.90;99.90;;;;;;4989913;28;20129;-67
2022/05/05 08:34:51;;;;;;;10.07;5.20;;;15.90;99.90;;;;;;5007868;28;20050;-67
2022/05/05 08:37:17;;;;;;;10.23;5.75;;;15.10;99.90;;;;;;4990620;28;20054;-67
2022/05/05 08:39:44;;;;;;;12.15;5.35;;;15.40;99.90;;;;;;5009790;28;20495;-67
2022/05/05 08:42:10;;;;;;;13.27;5.65;;;15.50;99.90;;;;;;5010154;28;20046;-67
2022/05/05 08:44:35;;;;;;;10.30;5.28;;;15.30;99.90;;;;;;5010273;28;20112;-67
2022/05/05 08:47:01;;;;;;;12.80;5.28;;;15.50;99.90;;;;;;5010773;28;20044;-67
2022/05/05 08:49:29;;;;;;;10.30;5.40;;;15.60;99.90;;;;;;4973083;28;20053;-67
2022/05/05 08:51:56;;;;;;;14.10;5.63;;;15.90;99.90;;;;;;5008756;28;20042;-67
2022/05/05 08:54:25;;;;;;;9.57;5.32;;;16.10;99.90;;;;;;5007132;28;20112;-68
2022/05/05 08:56:51;;;;;;;12.50;5.30;;;16.30;99.90;;;;;;5010204;28;20409;-67
2022/05/05 08:59:18;;;;;;;9.80;4.78;;;16.40;99.90;;;;;;5010081;28;20056;-68
2022/05/05 09:01:44;;;;;;;12.82;4.90;;;16.60;99.90;;;;;;4959171;28;20046;-67
2022/05/05 09:04:11;;;;;;;12.25;5.05;;;16.70;99.90;;;;;;4988140;28;20376;-67
2022/05/05 09:06:43;;;;;;;13.98;5.32;;;16.70;99.90;;;;;;4955066;28;20050;-67
2022/05/05 09:09:34;;;;;;;17.13;5.28;;;16.90;99.90;;;;;;4983055;28;20055;-67
2022/05/05 09:12:13;;;;;;;8.20;4.40;;;17.10;99.90;;;;;;4984756;28;20046;-67
2022/05/05 09:14:47;;;;;;;13.15;5.13;;;17.40;99.90;;;;;;4985921;28;20194;-67
2022/05/05 09:17:18;;;;;;;13.13;4.68;;;17.70;99.90;;;;;;5001087;28;20860;-67
2022/05/05 09:19:46;;;;;;;13.32;4.70;;;18.10;99.60;;;;;;5004402;28;20050;-66
2022/05/05 09:22:13;;;;;;;11.50;4.47;;;18.50;99.40;;;;;;4986614;28;20050;-66
2022/05/05 09:24:49;;;;;;;9.98;4.63;;;18.70;99.00;;;;;;5003335;28;20061;-67
2022/05/05 09:27:19;;;;;;;10.32;4.82;;;19.00;98.00;;;;;;4986789;28;20426;-67
2022/05/05 09:30:18;;;;;;;10.68;4.72;;;19.40;97.50;;;;;;5004357;28;20120;-67
2022/05/05 09:32:47;;;;;;;10.25;4.50;;;19.80;97.40;;;;;;4988832;28;20145;-67
2022/05/05 09:35:15;;;;;;;10.85;4.70;;;19.80;97.00;;;;;;4990725;28;20058;-67
2022/05/05 09:37:48;;;;;;;9.32;5.13;;;20.10;97.10;;;;;;5006745;28;20071;-68
2022/05/05 09:40:17;;;;;;;12.10;6.05;;;20.50;95.90;;;;;;5007380;28;20046;-67
2022/05/05 09:42:47;;;;;;;11.90;5.65;;;20.60;95.80;;;;;;4989255;28;20420;-67
2022/05/05 09:45:16;;;;;;;9.93;5.13;;;20.70;95.80;;;;;;5006744;28;20042;-68
2022/05/05 09:48:06;;;;;;;11.02;5.88;;;20.70;95.40;;;;;;5006358;28;20048;-67
2022/05/05 09:50:33;;;;;;;9.60;5.30;;;21.00;94.50;;;;;;5006657;28;20117;-68
2022/05/05 09:59:10;;;;;;;9.23;5.20;;;22.20;93.80;;;;;;5008152;28;20062;-67
2022/05/05 10:02:01;;;;;;;8.23;5.30;;;22.60;92.80;;;;;;5007605;28;20049;-67
2022/05/05 10:04:27;;;;;;;10.90;5.20;;;22.80;92.20;;;;;;4989489;28;20517;-67
2022/05/05 10:06:54;;;;;;;9.45;5.50;;;22.80;91.40;;;;;;5009491;28;20049;-68
2022/05/05 10:09:23;;;;;;;9.57;5.60;;;22.70;91.50;;;;;;5008221;28;20084;-67
2022/05/05 10:11:49;;;;;;;9.05;5.30;;;22.60;91.90;;;;;;4985706;28;20053;-67
2022/05/05 10:14:16;;;;;;;9.65;5.00;;;22.80;91.10;;;;;;4984474;28;20077;-68
2022/05/05 10:16:43;;;;;;;7.40;5.22;;;22.80;90.90;;;;;;5011166;28;20049;-67
2022/05/05 10:19:09;;;;;;;7.80;4.93;;;22.80;90.90;;;;;;5009582;28;20456;-67
2022/05/05 10:21:41;;;;;;;9.50;4.68;;;23.30;91.00;;;;;;5013459;28;20050;-67
2022/05/05 10:24:29;;;;;;;7.00;4.63;;;23.20;90.70;;;;;;5009988;28;20156;-66
2022/05/05 10:26:57;;;;;;;7.57;4.50;;;23.20;90.70;;;;;;4992208;28;20100;-67
2022/05/05 10:29:32;;;;;;;8.73;4.63;;;23.30;90.90;;;;;;5010217;28;20080;-68
2022/05/05 10:32:20;;;;;;;8.50;5.20;;;23.80;90.90;;;;;;5011170;28;20053;-68
2022/05/05 10:34:52;;;;;;;8.98;5.20;;;23.70;89.80;;;;;;5009628;28;20402;-67
2022/05/05 10:37:20;;;;;;;8.60;4.85;;;23.80;88.10;;;;;;5010050;28;20112;-69
2022/05/05 10:39:48;;;;;;;9.35;5.55;;;23.60;88.10;;;;;;5009596;28;20050;-69
2022/05/05 10:42:17;;;;;;;7.57;5.07;;;23.90;88.00;;;;;;5010110;28;20557;-68
2022/05/05 10:45:14;;;;;;;9.15;4.90;;;24.30;87.70;;;;;;4994380;28;20479;-68
2022/05/05 10:47:52;;;;;;;10.30;4.95;;;25.00;86.20;;;;;;4992399;28;20088;-68
2022/05/05 10:50:54;;;;;;;8.18;4.30;;;25.70;82.50;;;;;;5012074;28;20053;-68
2022/05/05 10:53:39;;;;;;;10.13;5.07;;;26.00;80.40;;;;;;5009644;28;20125;-68
2022/05/05 10:56:24;;;;;;;7.20;4.70;;;26.70;81.40;;;;;;4991479;28;20037;-68
2022/05/05 10:59:07;;;;;;;8.95;4.90;;;27.30;79.70;;;;;;4993109;28;20042;-68
2022/05/05 11:01:42;;;;;;;10.73;5.55;;;27.50;76.80;;;;;;5010108;28;20121;-68
2022/05/05 11:04:24;;;;;;;9.00;5.47;;;27.70;75.20;;;;;;5010642;28;20046;-68
2022/05/05 11:07:23;;;;;;;9.60;5.78;;;27.80;73.30;;;;;;5010518;28;20403;-68
2022/05/05 11:09:49;;;;;;;9.38;5.68;;;27.80;72.40;;;;;;5009598;28;20045;-68
2022/05/05 11:12:18;;;;;;;8.90;5.60;;;27.80;71.50;;;;;;5011918;28;20132;-68
2022/05/05 11:23:45;;;;;;;9.68;6.38;;;27.40;70.80;;;;;;5008897;28;20447;-67
2022/05/05 11:26:13;;;;;;;9.98;6.38;;;27.70;69.80;;;;;;5007980;28;20628;-67
2022/05/05 11:28:39;;;;;;;11.45;6.40;;;27.40;69.50;;;;;;4994484;28;20064;-68
2022/05/05 11:31:15;;;;;;;8.82;5.68;;;27.60;70.70;;;;;;5011902;28;20049;-67
2022/05/05 11:33:41;;;;;;;10.25;6.65;;;26.60;70.00;;;;;;5012115;28;20128;-67
2022/05/05 11:36:06;;;;;;;10.93;6.60;;;26.10;70.80;;;;;;5009296;28;20121;-67
2022/05/05 11:38:32;;;;;;;10.32;6.70;;;25.80;71.40;;;;;;5008779;28;20050;-67
2022/05/05 11:41:05;;;;;;;11.70;6.10;;;25.20;72.60;;;;;;4991050;28;20053;-68
2022/05/05 11:46:16;;;;;;;10.45;6.70;;;25.10;73.90;;;;;;4971809;28;20050;-67
2022/05/05 11:48:43;;;;;;;10.88;7.15;;;25.40;73.70;;;;;;4972199;28;20038;-68
2022/05/05 11:51:10;;;;;;;9.52;6.65;;;25.40;73.80;;;;;;4971669;28;20043;-67
2022/05/05 11:53:36;;;;;;;13.60;6.97;;;25.90;74.60;;;;;;4994978;28;20100;-67
2022/05/05 11:56:03;;;;;;;11.38;7.00;;;26.10;74.10;;;;;;5009049;28;20041;-67
2022/05/05 12:04:02;;;;;;;11.88;6.85;;;29.10;70.20;;;;;;5008573;28;20497;-68
2022/05/05 12:06:30;;;;;;;9.25;6.22;;;30.40;68.70;;;;;;5008123;28;20517;-68
2022/05/05 12:08:57;;;;;;;10.38;6.07;;;31.90;66.90;;;;;;5008680;28;20046;-67
2022/05/05 12:11:26;;;;;;;7.43;5.53;;;32.90;63.60;;;;;;4990326;28;20053;-67
2022/05/05 12:13:52;;;;;;;9.40;6.03;;;32.50;62.10;;;;;;5009766;28;20045;-67
2022/05/05 12:16:18;;;;;;;9.93;5.75;;;32.30;60.60;;;;;;4993213;28;20053;-67
2022/05/05 12:18:53;;;;;;;8.48;5.55;;;32.00;59.30;;;;;;5010901;28;20389;-67
2022/05/05 12:21:22;;;;;;;7.28;5.35;;;31.60;59.10;;;;;;4991010;28;20061;-67
2022/05/05 12:24:03;;;;;;;9.80;6.30;;;31.20;58.30;;;;;;5008242;28;20052;-68
2022/05/05 12:26:35;;;;;;;9.63;6.50;;;30.90;58.90;;;;;;5007170;28;20038;-68
2022/05/05 12:29:01;;;;;;;10.18;6.18;;;30.30;59.60;;;;;;4984075;28;20077;-68
2022/05/05 12:31:30;;;;;;;11.85;7.15;;;29.60;60.30;;;;;;4974052;28;20101;-67
2022/05/05 12:33:57;;;;;;;9.05;6.45;;;29.00;59.20;;;;;;4991126;28;20061;-67
2022/05/05 12:36:29;;;;;;;9.20;5.95;;;28.90;59.90;;;;;;4990432;28;20046;-67
2022/05/05 12:39:11;;;;;;;9.75;6.07;;;27.60;60.90;;;;;;4991205;28;20066;-67
2022/05/05 12:41:37;;;;;;;10.48;6.30;;;27.40;61.40;;;;;;5010245;28;20085;-67
2022/05/05 12:44:10;;;;;;;10.90;6.05;;;27.40;61.50;;;;;;5026708;28;20470;-68
2022/05/05 12:46:52;;;;;;;9.55;5.68;;;27.20;62.20;;;;;;5027761;28;20205;-68
2022/05/05 12:49:38;;;;;;;10.65;5.70;;;26.90;62.40;;;;;;5009848;28;20048;-68
2022/05/05 12:52:06;;;;;;;9.55;5.20;;;26.70;62.50;;;;;;5028561;28;20114;-68
2022/05/05 13:00:08;;;;;;;11.38;5.63;;;26.30;63.10;;;;;;4970966;28;20058;-68
2022/05/05 13:02:34;;;;;;;8.90;6.20;;;26.20;63.80;;;;;;4987359;28;20046;-68
2022/05/05 13:05:00;;;;;;;8.00;5.57;;;26.60;64.20;;;;;;4988389;28;20446;-68
2022/05/05 13:07:28;;;;;;;7.85;5.35;;;26.00;64.50;;;;;;4987323;28;20101;-68
2022/05/05 13:09:54;;;;;;;8.55;5.95;;;25.70;64.80;;;;;;4971552;28;20386;-68
2022/05/05 13:12:19;;;;;;;8.90;5.50;;;25.60;65.10;;;;;;4970679;28;20038;-68
2022/05/05 13:14:46;;;;;;;7.63;5.80;;;25.50;65.00;;;;;;4970580;28;20097;-68
2022/05/05 13:17:11;;;;;;;7.28;5.07;;;25.30;64.90;;;;;;4988356;28;20050;-67
2022/05/05 13:19:37;;;;;;;7.40;5.55;;;25.30;66.00;;;;;;5005156;28;20065;-67
2022/05/05 13:22:03;;;;;;;10.70;5.22;;;25.10;66.40;;;;;;5009454;28;20092;-67
2022/05/05 13:24:29;;;;;;;7.82;5.18;;;25.10;66.80;;;;;;5006898;28;20038;-68
2022/05/05 13:26:55;;;;;;;10.63;6.28;;;25.20;67.00;;;;;;5008583;28;20038;-67
2022/05/05 13:29:21;;;;;;;9.07;5.70;;;25.40;66.50;;;;;;5007701;28;20441;-67
2022/05/05 13:31:47;;;;;;;7.90;5.70;;;25.30;66.60;;;;;;5007913;28;20347;-67
2022/05/05 13:34:13;;;;;;;10.30;6.45;;;25.10;65.90;;;;;;5006754;28;20038;-68
2022/05/05 13:36:40;;;;;;;9.40;5.95;;;25.10;66.20;;;;;;4990028;28;20050;-67
2022/05/05 13:39:06;;;;;;;12.50;6.22;;;24.90;66.10;;;;;;5007117;28;20065;-67
2022/05/05 13:41:32;;;;;;;11.95;6.30;;;24.70;66.30;;;;;;5007467;28;20050;-67